createdAt,value
2023-04-11T00:01:03.454Z,98.26
2023-04-11T00:03:31.327Z,98.43
2023-04-11T00:05:59.103Z,98.78
2023-04-11T00:08:27.152Z,97.35
2023-04-11T00:10:56.441Z,94.56
2023-04-11T00:13:24.400Z,93.67
2023-04-11T00:15:55.431Z,96.23
2023-04-11T00:18:25.498Z,92.57
2023-04-11T00:20:53.293Z,96.61
2023-04-11T00:23:38.981Z,99.66
2023-04-11T00:26:08.817Z,97.57
2023-04-11T00:28:36.623Z,100.00
2023-04-11T00:31:04.321Z,97.38
2023-04-11T00:33:32.333Z,96.14
2023-04-11T00:36:00.055Z,94.91
2023-04-11T00:38:27.769Z,91.94
2023-04-11T00:40:55.462Z,100.00
2023-04-11T00:43:24.503Z,96.83
2023-04-11T00:45:52.665Z,100.00
2023-04-11T00:48:20.538Z,100.00
2023-04-11T00:50:48.225Z,99.29
2023-04-11T00:53:38.748Z,100.00
2023-04-11T00:56:07.338Z,97.34
2023-04-11T00:58:37.987Z,94.30
2023-04-11T01:01:09.354Z,97.27
2023-04-11T01:03:37.848Z,99.83
2023-04-11T01:06:07.379Z,100.00
2023-04-11T01:08:35.269Z,97.65
2023-04-11T01:11:10.446Z,100.00
2023-04-11T01:13:41.450Z,100.00
2023-04-11T01:16:10.445Z,99.60
2023-04-11T01:18:38.189Z,99.79
2023-04-11T01:21:06.454Z,100.00
2023-04-11T01:23:35.505Z,99.32
2023-04-11T01:26:03.216Z,99.69
2023-04-11T01:28:30.939Z,99.99
2023-04-11T01:30:59.009Z,97.40
2023-04-11T01:33:26.819Z,95.80
2023-04-11T01:35:54.584Z,99.29
2023-04-11T01:38:22.363Z,98.88
2023-04-11T01:40:51.741Z,95.51
2023-04-11T01:43:19.609Z,98.76
2023-04-11T01:45:47.599Z,98.25
2023-04-11T01:48:16.394Z,100.00
2023-04-11T01:50:44.083Z,97.50
2023-04-11T01:53:11.734Z,96.69
2023-04-11T01:55:39.423Z,98.59
2023-04-11T01:58:08.490Z,97.50
2023-04-11T02:00:37.073Z,96.43
2023-04-11T02:03:05.334Z,95.87
2023-04-11T02:05:33.492Z,99.21
2023-04-11T02:08:01.256Z,97.31
2023-04-11T02:10:28.970Z,100.00
2023-04-11T02:12:56.596Z,97.69
2023-04-11T02:15:25.715Z,96.53
2023-04-11T02:17:54.155Z,89.78
2023-04-11T02:20:23.275Z,91.61
2023-04-11T02:22:51.049Z,91.15
2023-04-11T02:25:18.865Z,91.69
2023-04-11T02:27:46.539Z,92.66
2023-04-11T02:30:14.268Z,93.78
2023-04-11T02:32:43.366Z,93.25
2023-04-11T02:35:11.104Z,95.87
2023-04-11T02:37:38.753Z,94.23
2023-04-11T02:40:09.932Z,98.72
2023-04-11T02:42:39.976Z,99.55
2023-04-11T02:45:08.792Z,97.66
2023-04-11T02:47:36.593Z,100.00
2023-04-11T02:50:06.270Z,100.00
2023-04-11T02:52:34.601Z,95.53
2023-04-11T02:55:02.290Z,100.00
2023-04-11T02:57:30.009Z,100.00
2023-04-11T02:59:57.647Z,100.00
2023-04-11T03:02:25.876Z,100.00
2023-04-11T03:04:53.722Z,100.00
2023-04-11T03:07:22.828Z,100.00
2023-04-11T03:09:50.634Z,100.00
2023-04-11T03:12:20.098Z,100.00
2023-04-11T03:14:47.738Z,100.00
2023-04-11T03:17:15.676Z,100.00
2023-04-11T03:19:43.305Z,100.00
2023-04-11T03:22:12.511Z,100.00
2023-04-11T03:24:41.567Z,100.00
2023-04-11T03:27:09.208Z,100.00
2023-04-11T03:29:36.854Z,100.00
2023-04-11T03:32:04.592Z,99.96
2023-04-11T03:34:32.265Z,100.00
2023-04-11T03:36:59.905Z,99.99
2023-04-11T03:39:27.742Z,98.90
2023-04-11T03:41:57.812Z,97.67
2023-04-11T03:44:25.492Z,97.91
2023-04-11T03:46:53.208Z,98.97
2023-04-11T03:49:20.937Z,98.47
2023-04-11T03:51:48.636Z,95.99
2023-04-11T03:54:16.497Z,97.09
2023-04-11T03:56:44.157Z,98.43
2023-04-11T03:59:13.492Z,95.97
2023-04-11T04:01:41.243Z,92.99
2023-04-11T04:04:09.229Z,96.05
2023-04-11T04:06:37.027Z,96.46
2023-04-11T04:09:05.173Z,95.33
2023-04-11T04:11:33.135Z,91.34
2023-04-11T04:14:02.168Z,95.53
2023-04-11T04:16:31.299Z,96.17
2023-04-11T04:18:58.950Z,95.49
2023-04-11T04:21:32.854Z,97.32
2023-04-11T04:24:03.767Z,96.98
2023-04-11T04:26:31.959Z,97.91
2023-04-11T04:29:18.172Z,96.26
2023-04-11T04:31:50.630Z,96.66
2023-04-11T04:34:21.982Z,93.15
2023-04-11T04:36:49.737Z,95.15
2023-04-11T04:39:18.637Z,98.69
2023-04-11T04:41:48.580Z,98.06
2023-04-11T04:44:17.396Z,100.00
2023-04-11T04:46:45.116Z,98.96
2023-04-11T04:49:14.187Z,98.24
2023-04-11T04:51:41.903Z,95.45
2023-04-11T04:54:09.677Z,94.38
2023-04-11T04:56:37.539Z,93.84
2023-04-11T04:59:05.201Z,95.28
2023-04-11T05:01:33.253Z,94.19
2023-04-11T05:04:02.082Z,92.33
2023-04-11T05:06:32.932Z,95.20
2023-04-11T05:09:02.099Z,98.14
2023-04-11T05:11:30.096Z,96.97
2023-04-11T05:13:58.063Z,100.00
2023-04-11T05:16:26.025Z,100.00
2023-04-11T05:18:53.968Z,100.00
2023-04-11T05:21:23.867Z,100.00
2023-04-11T05:23:52.953Z,100.00
2023-04-11T05:26:20.609Z,100.00
2023-04-11T05:28:48.232Z,100.00
2023-04-11T05:31:16.977Z,100.00
2023-04-11T05:33:44.820Z,100.00
2023-04-11T05:36:14.446Z,100.00
2023-04-11T05:38:42.791Z,100.00
2023-04-11T05:41:12.541Z,100.00
2023-04-11T05:43:40.344Z,100.00
2023-04-11T05:46:09.208Z,100.00
2023-04-11T05:48:38.191Z,100.00
2023-04-11T05:51:06.215Z,99.59
2023-04-11T05:53:33.987Z,98.53
2023-04-11T05:56:01.924Z,100.00
2023-04-11T05:58:31.190Z,98.88
2023-04-11T06:00:59.494Z,98.56
2023-04-11T06:03:27.672Z,99.87
2023-04-11T06:06:16.472Z,95.56
2023-04-11T06:08:56.216Z,100.00
2023-04-11T06:11:39.966Z,100.00
2023-04-11T06:14:09.039Z,98.81
2023-04-11T06:16:38.751Z,100.00
2023-04-11T06:19:06.874Z,100.00
2023-04-11T06:21:34.655Z,100.00
2023-04-11T06:24:05.604Z,100.00
2023-04-11T06:26:33.888Z,100.00
2023-04-11T06:29:04.853Z,100.00
2023-04-11T06:31:43.231Z,100.00
2023-04-11T06:34:12.075Z,100.00
2023-04-11T06:36:42.727Z,100.00
2023-04-11T06:39:10.994Z,100.00
2023-04-11T06:41:38.919Z,100.00
2023-04-11T06:44:06.782Z,100.00
2023-04-11T06:46:34.640Z,99.52
2023-04-11T06:49:05.665Z,100.00
2023-04-11T06:51:33.375Z,100.00
2023-04-11T06:54:01.201Z,100.00
2023-04-11T06:56:29.288Z,100.00
2023-04-11T06:58:57.165Z,100.00
2023-04-11T07:01:25.682Z,100.00
2023-04-11T07:03:57.742Z,100.00
2023-04-11T07:06:27.144Z,100.00
2023-04-11T07:08:55.160Z,100.00
2023-04-11T07:11:22.921Z,100.00
2023-04-11T07:14:08.238Z,100.00
2023-04-11T07:16:36.192Z,100.00
2023-04-11T07:19:04.146Z,100.00
2023-04-11T07:21:33.501Z,99.53
2023-04-11T07:24:01.671Z,99.84
2023-04-11T07:26:32.604Z,97.56
2023-04-11T07:29:02.779Z,93.16
2023-04-11T07:31:30.996Z,91.59
2023-04-11T07:34:00.158Z,89.21
2023-04-11T07:36:28.198Z,88.17
2023-04-11T07:39:00.606Z,87.18
2023-04-11T07:41:29.720Z,84.68
2023-04-11T07:43:57.932Z,82.62
2023-04-11T07:46:26.271Z,80.25
2023-04-11T07:48:54.078Z,79.49
2023-04-11T07:51:21.846Z,80.22
2023-04-11T07:53:51.815Z,78.97
2023-04-11T07:56:21.060Z,76.63
2023-04-11T07:58:48.955Z,75.89
2023-04-11T08:01:24.139Z,74.73
2023-04-11T08:03:52.891Z,74.50
2023-04-11T08:06:20.915Z,75.08
2023-04-11T08:08:49.632Z,72.89
2023-04-11T08:11:17.650Z,72.35
2023-04-11T08:13:46.903Z,70.68
2023-04-11T08:16:16.532Z,69.88
2023-04-11T08:18:45.812Z,70.99
2023-04-11T08:21:13.978Z,68.94
2023-04-11T08:23:42.465Z,65.66
2023-04-11T08:26:12.971Z,65.96
2023-04-11T08:28:42.844Z,65.35
2023-04-11T08:31:13.535Z,64.87
2023-04-11T08:33:41.630Z,63.86
2023-04-11T08:36:11.041Z,62.37
2023-04-11T08:38:39.313Z,61.58
2023-04-11T08:41:07.569Z,61.14
2023-04-11T08:43:41.449Z,60.85
2023-04-11T08:46:09.756Z,60.12
2023-04-11T08:48:39.598Z,60.51
2023-04-11T08:51:32.961Z,60.16
2023-04-11T08:54:06.162Z,59.75
2023-04-11T08:56:35.350Z,59.40
2023-04-11T08:59:03.224Z,61.59
2023-04-11T09:01:33.399Z,59.15
2023-04-11T09:04:05.237Z,56.18
2023-04-11T09:06:34.289Z,57.34
2023-04-11T09:09:05.167Z,56.46
2023-04-11T09:11:32.987Z,57.62
2023-04-11T09:14:08.155Z,56.84
2023-04-11T09:16:36.339Z,58.91
2023-04-11T09:19:07.516Z,57.94
2023-04-11T09:22:07.813Z,56.71
2023-04-11T09:24:36.686Z,56.42
2023-04-11T09:30:22.564Z,56.69
2023-04-11T09:32:53.305Z,57.08
2023-04-11T09:35:49.497Z,56.40
2023-04-11T09:38:28.826Z,55.97
2023-04-11T09:40:57.136Z,55.05
2023-04-11T09:43:25.308Z,56.00
2023-04-11T09:46:11.780Z,55.14
2023-04-11T09:51:20.743Z,62.95
2023-04-11T09:53:56.493Z,64.79
2023-04-11T09:56:26.511Z,62.12
2023-04-11T09:58:56.578Z,61.49
2023-04-11T10:01:25.022Z,57.45
2023-04-11T10:03:54.284Z,55.78
2023-04-11T10:06:31.723Z,56.08
2023-04-11T10:09:07.164Z,54.48
2023-04-11T10:11:35.136Z,56.23
2023-04-11T10:14:02.964Z,56.02
2023-04-11T10:16:34.590Z,55.08
2023-04-11T10:19:25.275Z,55.65
2023-04-11T10:22:01.067Z,53.29
2023-04-11T10:24:28.920Z,52.74
2023-04-11T10:26:58.664Z,52.75
2023-04-11T10:29:51.210Z,53.26
2023-04-11T10:32:21.896Z,52.40
2023-04-11T10:35:23.741Z,52.26
2023-04-11T10:37:52.937Z,48.83
2023-04-11T10:40:21.556Z,49.61
2023-04-11T10:42:49.471Z,51.30
2023-04-11T10:45:24.444Z,51.07
2023-04-11T10:48:03.525Z,53.70
2023-04-11T10:50:43.472Z,55.54
2023-04-11T10:53:42.169Z,54.72
2023-04-11T10:56:10.090Z,53.61
2023-04-11T10:58:39.712Z,55.69
2023-04-11T11:01:31.327Z,53.33
2023-04-11T11:04:07.737Z,52.85
2023-04-11T11:06:46.187Z,52.42
2023-04-11T11:09:24.176Z,50.80
2023-04-11T11:12:07.054Z,48.12
2023-04-11T11:14:34.810Z,49.07
2023-04-11T11:17:03.248Z,49.28
2023-04-11T11:19:31.526Z,49.19
2023-04-11T11:22:03.671Z,51.09
2023-04-11T11:24:51.589Z,49.48
2023-04-11T11:27:21.148Z,49.43
2023-04-11T11:29:51.927Z,48.30
2023-04-11T11:32:24.842Z,46.77
2023-04-11T11:34:53.040Z,46.96
2023-04-11T11:37:21.509Z,45.24
2023-04-11T11:39:51.036Z,44.28
2023-04-11T11:42:19.001Z,43.85
2023-04-11T11:44:46.805Z,44.86
2023-04-11T11:47:15.487Z,44.45
2023-04-11T11:49:47.609Z,44.40
2023-04-11T11:52:33.303Z,46.42
2023-04-11T11:55:03.598Z,45.79
2023-04-11T11:57:31.452Z,45.88
2023-04-11T12:00:02.033Z,44.87
2023-04-11T12:02:29.946Z,45.48
2023-04-11T12:05:00.094Z,44.36
2023-04-11T12:07:28.346Z,42.90
2023-04-11T12:09:58.964Z,44.28
2023-04-11T12:12:36.942Z,42.66
2023-04-11T12:15:09.576Z,43.54
2023-04-11T12:17:38.042Z,45.87
2023-04-11T12:20:07.935Z,43.93
2023-04-11T12:22:36.295Z,43.90
2023-04-11T12:25:08.318Z,43.31
2023-04-11T12:27:37.764Z,42.85
2023-04-11T12:30:06.612Z,43.01
2023-04-11T12:32:35.412Z,44.01
2023-04-11T12:35:04.324Z,44.77
2023-04-11T12:37:32.476Z,44.09
2023-04-11T12:40:00.685Z,42.44
2023-04-11T12:42:30.901Z,41.88
2023-04-11T12:45:00.489Z,40.82
2023-04-11T12:47:28.384Z,41.99
2023-04-11T12:49:56.129Z,40.02
2023-04-11T12:52:25.450Z,39.69
2023-04-11T12:54:53.726Z,40.21
2023-04-11T12:57:21.450Z,39.48
2023-04-11T12:59:49.162Z,40.22
2023-04-11T13:02:19.065Z,40.38
2023-04-11T13:04:47.251Z,37.26
2023-04-11T13:07:15.170Z,37.19
2023-04-11T13:09:43.029Z,36.14
2023-04-11T13:12:10.994Z,36.24
2023-04-11T13:14:38.833Z,36.40
2023-04-11T13:17:06.600Z,37.58
2023-04-11T13:19:35.756Z,38.63
2023-04-11T13:22:04.071Z,35.57
2023-04-11T13:24:32.932Z,36.09
2023-04-11T13:27:00.662Z,35.24
2023-04-11T13:29:28.447Z,36.27
2023-04-11T13:31:56.258Z,35.23
2023-04-11T13:34:24.296Z,36.36
2023-04-11T13:36:53.429Z,37.83
2023-04-11T13:39:21.259Z,38.17
2023-04-11T13:41:48.992Z,35.57
2023-04-11T13:44:16.718Z,35.08
2023-04-11T13:46:44.435Z,33.21
2023-04-11T13:49:12.194Z,34.55
2023-04-11T13:54:16.264Z,34.73
2023-04-11T13:56:43.982Z,35.49
2023-04-11T13:59:11.870Z,34.30
2023-04-11T14:01:42.836Z,35.48
2023-04-11T14:04:10.772Z,34.36
2023-04-11T14:06:38.655Z,35.51
2023-04-11T14:09:06.434Z,36.04
2023-04-11T14:11:35.612Z,34.94
2023-04-11T14:14:03.336Z,34.77
2023-04-11T14:16:31.648Z,35.46
2023-04-11T14:18:59.729Z,34.45
2023-04-11T14:21:28.808Z,32.96
2023-04-11T14:23:56.922Z,33.62
2023-04-11T14:26:24.920Z,32.82
2023-04-11T14:29:15.570Z,32.33
2023-04-11T14:31:43.409Z,33.68
2023-04-11T14:34:11.122Z,33.22
2023-04-11T14:36:39.068Z,32.26
2023-04-11T14:39:07.338Z,32.09
2023-04-11T14:41:35.530Z,31.83
2023-04-11T14:44:03.303Z,30.89
2023-04-11T14:46:32.471Z,34.10
2023-04-11T14:49:00.718Z,34.89
2023-04-11T14:51:29.732Z,35.36
2023-04-11T14:53:59.766Z,32.82
2023-04-11T14:56:27.756Z,31.53
2023-04-11T14:58:55.764Z,31.76
2023-04-11T15:01:24.273Z,31.03
2023-04-11T15:03:54.644Z,30.11
2023-04-11T15:06:22.699Z,31.30
2023-04-11T15:08:50.590Z,30.64
2023-04-11T15:11:18.915Z,30.66
2023-04-11T15:13:48.287Z,31.37
2023-04-11T15:16:17.462Z,30.50
2023-04-11T15:18:46.453Z,29.81
2023-04-11T15:21:17.086Z,29.06
2023-04-11T15:27:16.278Z,30.26
2023-04-11T15:29:43.992Z,30.19
2023-04-11T15:32:11.703Z,29.26
2023-04-11T15:34:40.272Z,28.83
2023-04-11T15:37:13.245Z,28.62
2023-04-11T15:39:41.011Z,29.78
2023-04-11T15:42:08.747Z,26.08
2023-04-11T15:44:36.501Z,27.17
2023-04-11T15:47:04.558Z,29.97
2023-04-11T15:49:32.456Z,27.25
2023-04-11T15:52:00.199Z,28.46
2023-04-11T15:54:29.386Z,30.05
2023-04-11T15:56:57.369Z,29.99
2023-04-11T15:59:25.347Z,29.09
2023-04-11T16:01:53.212Z,29.09
2023-04-11T16:04:21.226Z,27.89
2023-04-11T16:06:49.241Z,28.89
2023-04-11T16:09:16.899Z,29.59
2023-04-11T16:11:46.322Z,29.56
2023-04-11T16:14:14.067Z,29.74
2023-04-11T16:16:42.135Z,30.19
2023-04-11T16:19:09.898Z,30.75
2023-04-11T16:21:38.831Z,30.31
2023-04-11T16:24:06.856Z,29.42
2023-04-11T16:26:34.621Z,28.96
2023-04-11T16:29:03.825Z,30.75
2023-04-11T16:31:32.151Z,29.19
2023-04-11T16:34:00.029Z,29.55
2023-04-11T16:36:28.494Z,33.09
2023-04-11T16:38:56.304Z,32.93
2023-04-11T16:41:23.984Z,32.16
2023-04-11T16:43:51.793Z,32.11
2023-04-11T16:46:20.937Z,32.83
2023-04-11T16:48:48.662Z,33.10
2023-04-11T16:51:18.370Z,34.16
2023-04-11T16:53:47.372Z,33.53
2023-04-11T16:59:02.360Z,34.57
2023-04-11T17:01:31.471Z,34.22
2023-04-11T17:04:01.394Z,35.31
2023-04-11T17:06:29.453Z,33.66
2023-04-11T17:08:57.853Z,34.86
2023-04-11T17:11:25.693Z,35.67
2023-04-11T17:13:55.098Z,35.54
2023-04-11T17:16:23.162Z,34.65
2023-04-11T17:18:52.246Z,36.87
2023-04-11T17:21:20.029Z,36.94
2023-04-11T17:23:47.888Z,36.66
2023-04-11T17:26:15.994Z,37.53
2023-04-11T17:28:44.379Z,37.75
2023-04-11T17:31:13.138Z,37.25
2023-04-11T17:33:41.129Z,37.54
2023-04-11T17:36:12.266Z,38.11
2023-04-11T17:38:42.113Z,37.63
2023-04-11T17:41:14.955Z,38.91
2023-04-11T17:43:43.401Z,37.88
2023-04-11T17:46:12.425Z,38.69
2023-04-11T17:48:40.254Z,39.17
2023-04-11T17:51:08.071Z,38.06
2023-04-11T17:53:37.146Z,38.41
2023-04-11T17:56:05.777Z,37.66
2023-04-11T17:58:33.867Z,38.87
2023-04-11T18:01:03.209Z,41.67
2023-04-11T18:03:35.476Z,41.32
2023-04-11T18:06:03.484Z,39.89
2023-04-11T18:08:48.908Z,39.97
2023-04-11T18:11:20.958Z,40.24
2023-04-11T18:13:50.548Z,40.75
2023-04-11T18:16:18.626Z,43.77
2023-04-11T18:18:47.195Z,43.35
2023-04-11T18:21:16.078Z,44.05
2023-04-11T18:23:44.152Z,47.35
2023-04-11T18:26:12.456Z,46.31
2023-04-11T18:28:41.514Z,49.19
2023-04-11T18:31:09.554Z,48.06
2023-04-11T18:33:41.707Z,45.55
2023-04-11T18:36:10.420Z,46.81
2023-04-11T18:38:38.419Z,47.01
2023-04-11T18:41:07.702Z,45.80
2023-04-11T18:43:38.391Z,46.56
2023-04-11T18:46:09.703Z,47.43
2023-04-11T18:48:37.612Z,47.57
2023-04-11T18:51:08.684Z,49.84
2023-04-11T18:53:37.002Z,49.08
2023-04-11T18:56:04.967Z,52.18
2023-04-11T18:58:34.516Z,50.47
2023-04-11T19:01:14.731Z,50.36
2023-04-11T19:03:45.921Z,51.09
2023-04-11T19:06:14.130Z,50.25
2023-04-11T19:08:41.947Z,50.13
2023-04-11T19:11:09.813Z,49.40
2023-04-11T19:13:37.453Z,50.35
2023-04-11T19:16:05.449Z,52.25
2023-04-11T19:18:33.228Z,50.50
2023-04-11T19:21:02.300Z,50.12
2023-04-11T19:23:29.995Z,51.11
2023-04-11T19:26:00.498Z,50.83
2023-04-11T19:28:28.282Z,52.78
2023-04-11T19:30:55.951Z,52.40
2023-04-11T19:33:26.037Z,51.97
2023-04-11T19:35:54.248Z,51.80
2023-04-11T19:38:23.536Z,52.68
2023-04-11T19:40:51.233Z,51.86
2023-04-11T19:43:19.748Z,51.66
2023-04-11T19:45:47.601Z,51.34
2023-04-11T19:48:16.190Z,52.29
2023-04-11T19:50:43.954Z,51.84
2023-04-11T19:53:11.634Z,51.99
2023-04-11T19:55:41.170Z,52.88
2023-04-11T19:58:08.844Z,51.51
2023-04-11T20:00:38.514Z,51.75
2023-04-11T20:03:07.752Z,53.02
2023-04-11T20:05:36.115Z,50.47
2023-04-11T20:08:03.815Z,51.02
2023-04-11T20:10:31.742Z,52.55
2023-04-11T20:13:00.819Z,52.70
2023-04-11T20:15:29.588Z,52.25
2023-04-11T20:17:57.347Z,53.64
2023-04-11T20:20:27.947Z,51.50
2023-04-11T20:22:55.866Z,52.48
2023-04-11T20:25:25.461Z,52.20
2023-04-11T20:27:53.488Z,52.82
2023-04-11T20:30:22.700Z,51.15
2023-04-11T20:32:50.693Z,51.65
2023-04-11T20:35:19.339Z,50.22
2023-04-11T20:37:47.857Z,52.82
2023-04-11T20:40:15.650Z,52.60
2023-04-11T20:42:46.040Z,53.23
2023-04-11T20:45:15.698Z,53.02
2023-04-11T20:48:06.571Z,53.57
2023-04-11T20:50:34.387Z,54.54
2023-04-11T20:53:02.642Z,51.90
2023-04-11T20:55:30.793Z,53.98
2023-04-11T20:57:58.599Z,51.79
2023-04-11T21:00:26.674Z,48.74
2023-04-11T21:02:56.066Z,49.56
2023-04-11T21:05:24.773Z,50.69
2023-04-11T21:07:58.716Z,51.22
2023-04-11T21:10:26.420Z,50.77
2023-04-11T21:12:54.592Z,49.40
2023-04-11T21:15:22.826Z,50.76
2023-04-11T21:17:52.244Z,53.97
2023-04-11T21:20:22.540Z,50.93
2023-04-11T21:23:08.009Z,51.97
2023-04-11T21:25:37.543Z,52.48
2023-04-11T21:28:05.232Z,51.12
2023-04-11T21:30:32.974Z,54.12
2023-04-11T21:33:00.726Z,51.22
2023-04-11T21:35:30.004Z,52.24
2023-04-11T21:37:57.695Z,52.29
2023-04-11T21:40:25.453Z,52.87
2023-04-11T21:42:55.523Z,53.34
2023-04-11T21:45:23.495Z,53.16
2023-04-11T21:47:51.973Z,51.55
2023-04-11T21:50:19.775Z,53.38
2023-04-11T21:52:48.895Z,54.53
2023-04-11T21:55:16.996Z,55.60
2023-04-11T21:57:57.049Z,55.24
2023-04-11T22:00:24.891Z,57.22
2023-04-11T22:02:53.273Z,55.52
2023-04-11T22:08:29.500Z,56.49
2023-04-11T22:10:57.382Z,56.17
2023-04-11T22:13:25.482Z,55.47
2023-04-11T22:15:58.634Z,55.06
2023-04-11T22:18:27.144Z,54.76
2023-04-11T22:20:55.287Z,53.35
2023-04-11T22:23:24.996Z,55.51
2023-04-11T22:25:59.314Z,55.47
2023-04-11T22:28:27.144Z,56.21
2023-04-11T22:30:54.879Z,54.57
2023-04-11T22:33:22.725Z,52.88
2023-04-11T22:35:50.707Z,57.37
2023-04-11T22:38:18.475Z,57.09
2023-04-11T22:40:46.229Z,54.92
2023-04-11T22:43:15.299Z,58.60
2023-04-11T22:45:43.147Z,54.56
2023-04-11T22:48:10.990Z,55.80
2023-04-11T22:50:38.911Z,57.98
2023-04-11T22:53:09.590Z,54.73
2023-04-11T22:55:37.349Z,55.28
2023-04-11T22:58:05.101Z,54.93
2023-04-11T23:00:38.310Z,55.44
2023-04-11T23:03:09.257Z,56.86
2023-04-11T23:05:39.558Z,55.39
2023-04-11T23:08:07.850Z,55.35
2023-04-11T23:10:35.601Z,56.02
2023-04-11T23:13:03.637Z,57.95
2023-04-11T23:15:31.799Z,57.79
2023-04-11T23:18:00.946Z,57.60
2023-04-11T23:20:28.862Z,57.64
2023-04-11T23:22:58.369Z,56.47
2023-04-11T23:25:26.399Z,57.60
2023-04-11T23:28:08.657Z,55.24
2023-04-11T23:30:37.389Z,57.67
2023-04-11T23:33:08.683Z,57.07
2023-04-11T23:35:37.045Z,57.07
2023-04-11T23:38:05.877Z,56.92
2023-04-11T23:40:33.658Z,55.19
2023-04-11T23:43:01.618Z,55.41
2023-04-11T23:45:29.305Z,57.37
2023-04-11T23:47:57.368Z,57.19
2023-04-11T23:50:26.623Z,56.22
2023-04-11T23:52:54.858Z,56.43
2023-04-11T23:55:22.552Z,55.13
2023-04-11T23:57:50.823Z,58.08
